Annette, Alaska
Current Conditions -  °F | °C
As of 12:53 AM on Thursday 29 Jan 2015 (Local Time) from PANT Reporting Station
Light Rain Light Rain  
Wind Chill: 37°   Ceiling: 1100
Heat Index: 45°   Visibility: 10mi
Dew Point: 43°   Wind: 22mph
Humidity: 93%   Direction: 140°SE
Pressure: 30.12"   Gusts: 38mph
Location:  55.05°N, 131.6°W
Report Text: PANT 290953Z 14019G33KT 10SM -RA OVC011 07/06 A3012 RMK AO2 PK WND 15033/0948 SLP201 P0002 T00720061
Loading
Personal Weather Stations






























Interactive Weather Map New forecast layout! Learn more

10-Day Weather Forecast

Advertisements
Track Severe Weather on mobile